Main page
METAR-TAF:

METAR-TAF

Airports :

Nueva Hesperides International Airport

Salto, Uruguay

latitude: 31-23S, longitude: 057-57W, elevation: 34 m

Current weather observation

The report was made 9 hours and 12 minutes ago, at 22:00 UTC
Calm wind
Temperature 9°C
Humidity 66%
Pressure 1027 hPa
Visibility 10 km or more
no clouds below 1500 m and no cumulonimbus

METAR: SUSO 292200Z 00000KT CAVOK 09/03 Q1027

Time: 04:12 (07:12 UTC)

Forecast

The report was made 1 hour and 42 minutes ago, at 05:30 UTC
Forecast valid from 30 at 06 UTC to 31 at 06 UTC
Wind 5 kt from the West/Northwest
Visibility 10 km or more
no clouds below 1500 m and no cumulonimbus
Probability 30% :
Temporary
from 30 at 08 UTC to 30 at 11 UTC
Visibility: 0800 m
Broken clouds at a height of 1000 ft
patches of fog

TAF: SUSO 300530Z 3006/3106 30005KT CAVOK TX14/3018Z TNM01/3010Z PROB30 TEMPO 3008/3011 0800 BCFG BKN010

Weather observations and forecasts of more than 4000 airports (METAR and TAF reports).

The available stations are represented by yellow and red dots on the map.

Hover mouse over dot to see the name of the station.

Then click to see weather observations and forecasts.

To change the map : click on the green buttons with a black cross to zoom in, on the green button with a dash to zoom out, or on the green arrows for adjacent maps.


METAR-TAF: